Time;durP1;ratioP1;P1;durP2;ratioP2;P2;SDS_P1;SDS_P2;PMS_P1;PMS_P2;Temp;Humidity;BMP_temperature;BMP_pressure;BME280_temperature;BME280_humidity;BME280_pressure;Samples;Min_cycle;Max_cycle;Signal;HPM_P1;HPM_P2
2023/06/02 00:01:17;;;;;;;;;21.75;16.75;;;;;17.65;84.29;99004.41;5095976;27;45394;-59
2023/06/02 00:03:44;;;;;;;;;13.50;13.50;;;;;17.68;84.60;99002.38;5102723;27;45466;-60
2023/06/02 00:06:11;;;;;;;;;14.50;14.50;;;;;17.68;84.26;99004.19;5116407;27;45381;-60
2023/06/02 00:08:40;;;;;;;;;17.75;17.75;;;;;17.69;84.79;98995.22;5116290;27;46319;-60
2023/06/02 00:11:06;;;;;;;;;15.00;13.20;;;;;17.70;84.27;99003.13;5109228;27;45601;-59
2023/06/02 00:13:33;;;;;;;;;16.50;16.50;;;;;17.71;83.76;99001.31;5095697;27;45392;-59
2023/06/02 00:15:59;;;;;;;;;16.75;15.00;;;;;17.68;83.46;98994.38;5095680;27;45363;-60
2023/06/02 00:18:25;;;;;;;;;14.25;14.00;;;;;17.68;84.05;98993.53;5094891;27;46701;-60
2023/06/02 00:20:51;;;;;;;;;18.00;16.50;;;;;17.68;84.31;99002.38;5095366;27;45380;-60
2023/06/02 00:23:16;;;;;;;;;21.00;17.25;;;;;17.69;84.49;99003.22;5095559;27;45508;-60
2023/06/02 00:25:42;;;;;;;;;15.75;15.75;;;;;17.70;84.15;98995.13;5095454;27;45324;-60
2023/06/02 00:28:07;;;;;;;;;15.75;14.75;;;;;17.65;83.14;98999.94;5095390;27;46008;-60
2023/06/02 00:30:36;;;;;;;;;16.00;13.50;;;;;17.56;83.10;98995.22;5095586;27;45374;-60
2023/06/02 00:33:02;;;;;;;;;16.75;15.75;;;;;17.47;83.13;98985.19;5095684;27;45418;-60
2023/06/02 00:35:28;;;;;;;;;14.50;12.75;;;;;17.38;83.31;98983.19;5095788;27;45368;-60
2023/06/02 00:37:54;;;;;;;;;14.00;13.75;;;;;17.30;84.07;98985.53;5096010;27;45490;-60
2023/06/02 00:40:20;;;;;;;;;12.60;12.60;;;;;17.26;84.77;98984.88;5095458;27;45461;-60
2023/06/02 00:42:46;;;;;;;;;14.75;13.50;;;;;17.27;85.35;98981.25;5096202;27;45518;-60
2023/06/02 00:45:11;;;;;;;;;14.25;14.25;;;;;17.27;84.53;98983.91;5095185;27;45534;-60
2023/06/02 00:47:37;;;;;;;;;13.00;12.50;;;;;17.24;85.01;98975.31;5094999;27;45457;-60
2023/06/02 00:50:02;;;;;;;;;16.75;16.50;;;;;17.21;85.21;98980.84;5095498;27;45505;-60
2023/06/02 00:52:30;;;;;;;;;12.75;12.75;;;;;17.21;85.81;98979.03;5095755;27;45383;-60
2023/06/02 00:54:56;;;;;;;;;19.25;16.00;;;;;17.22;85.48;98980.75;5095267;27;45451;-60
2023/06/02 00:57:21;;;;;;;;;15.50;15.00;;;;;17.20;85.39;98980.00;5095111;27;45478;-60
2023/06/02 00:59:47;;;;;;;;;16.50;13.50;;;;;17.17;85.36;98982.00;5094060;27;45475;-60
2023/06/02 01:02:13;;;;;;;;;15.00;13.75;;;;;17.14;84.73;98980.41;5095252;27;45445;-59
2023/06/02 01:04:46;;;;;;;;;18.00;18.00;;;;;17.09;85.58;98978.06;5093778;27;45509;-60
2023/06/02 01:07:13;;;;;;;;;15.00;13.25;;;;;17.06;85.83;98974.78;5102576;27;48339;-60
2023/06/02 01:09:41;;;;;;;;;20.00;18.00;;;;;17.02;85.99;98978.59;5099608;27;45497;-60
2023/06/02 01:12:07;;;;;;;;;15.25;14.50;;;;;16.99;85.82;98976.13;5101859;27;45455;-60
2023/06/02 01:14:33;;;;;;;;;19.00;15.75;;;;;16.97;86.07;98978.06;5096976;27;45380;-60
2023/06/02 01:16:59;;;;;;;;;14.75;14.50;;;;;16.92;86.98;98978.38;5115878;27;45967;-60
2023/06/02 01:19:26;;;;;;;;;17.00;16.00;;;;;16.91;87.04;98975.81;5115255;27;45493;-60
2023/06/02 01:21:59;;;;;;;;;18.00;17.75;;;;;16.91;86.82;98973.16;5115980;27;45327;-60
2023/06/02 01:24:36;;;;;;;;;19.25;18.00;;;;;16.91;86.47;98971.34;5115423;27;45381;-60
2023/06/02 01:27:07;;;;;;;;;22.00;19.00;;;;;16.90;86.54;98968.78;5113819;27;45670;-60
2023/06/02 01:29:35;;;;;;;;;16.00;15.25;;;;;16.88;86.74;98970.69;5094610;27;45390;-60
2023/06/02 01:32:05;;;;;;;;;15.75;15.75;;;;;16.86;87.36;98973.47;5094857;27;45440;-59
2023/06/02 01:34:41;;;;;;;;;14.25;14.25;;;;;16.89;87.95;98969.75;5094310;27;45497;-60
2023/06/02 01:37:08;;;;;;;;;20.75;18.00;;;;;16.92;88.57;98973.06;5094460;27;46539;-60
2023/06/02 01:39:36;;;;;;;;;16.75;16.50;;;;;16.96;88.44;98979.00;5101207;27;45335;-60
2023/06/02 01:42:03;;;;;;;;;21.25;17.25;;;;;17.00;88.56;98977.84;5101226;27;45403;-60
2023/06/02 01:44:30;;;;;;;;;16.50;13.75;;;;;17.04;89.25;98974.03;5114938;27;45504;-60
2023/06/02 01:46:56;;;;;;;;;23.50;20.50;;;;;17.06;88.87;98972.97;5114887;27;45509;-60
2023/06/02 01:49:22;;;;;;;;;21.00;20.75;;;;;17.08;88.18;98973.72;5114859;27;45376;-60
2023/06/02 01:51:47;;;;;;;;;16.75;16.50;;;;;17.09;87.08;98975.38;5094849;27;45998;-59
2023/06/02 01:54:13;;;;;;;;;16.50;15.50;;;;;17.09;87.06;98972.72;5094673;27;45640;-60
2023/06/02 01:56:38;;;;;;;;;16.00;15.25;;;;;17.11;87.41;98977.94;5094244;27;46452;-59
2023/06/02 01:59:03;;;;;;;;;15.25;15.25;;;;;17.12;87.20;98970.81;5093765;27;45371;-59
2023/06/02 02:01:29;;;;;;;;;18.00;17.75;;;;;17.12;87.42;98965.47;5093664;27;45531;-60
2023/06/02 02:03:54;;;;;;;;;15.75;15.75;;;;;17.12;87.23;98968.16;5093212;27;45385;-60
2023/06/02 02:06:34;;;;;;;;;18.50;17.50;;;;;17.13;86.91;98962.72;5094204;27;46556;-60
2023/06/02 02:08:59;;;;;;;;;19.00;18.25;;;;;17.12;86.90;98961.00;5094512;27;45654;-59
2023/06/02 02:11:27;;;;;;;;;17.50;16.50;;;;;17.13;86.47;98959.19;5101168;27;45346;-59
2023/06/02 02:13:52;;;;;;;;;17.50;16.75;;;;;17.13;86.85;98962.72;5110427;27;45463;-59
2023/06/02 02:16:18;;;;;;;;;15.00;15.00;;;;;17.14;87.87;98955.56;5100788;27;45385;-59
2023/06/02 02:18:46;;;;;;;;;15.50;14.50;;;;;17.14;87.05;98958.25;5097540;27;45320;-60
2023/06/02 02:21:12;;;;;;;;;19.00;17.00;;;;;17.13;87.58;98961.88;5097685;27;45499;-60
2023/06/02 02:23:37;;;;;;;;;17.75;16.75;;;;;17.11;87.82;98961.97;5097584;27;45433;-60
2023/06/02 02:26:03;;;;;;;;;17.25;17.25;;;;;17.09;87.18;98959.41;5097584;27;45471;-59
2023/06/02 02:28:29;;;;;;;;;17.25;16.25;;;;;17.07;87.32;98956.03;5097243;27;45396;-59
2023/06/02 02:30:55;;;;;;;;;16.00;16.00;;;;;17.07;87.23;98960.50;5097376;27;45490;-59
2023/06/02 02:33:21;;;;;;;;;15.50;15.50;;;;;17.05;86.95;98951.75;5097078;27;45576;-59
2023/06/02 02:35:46;;;;;;;;;20.00;19.00;;;;;17.07;87.09;98952.50;5114159;27;46130;-59
2023/06/02 02:38:11;;;;;;;;;17.50;16.50;;;;;17.09;86.80;98958.59;5107808;27;45338;-60
2023/06/02 02:40:37;;;;;;;;;20.00;18.75;;;;;17.11;87.38;98951.31;5097821;27;45381;-60
2023/06/02 02:43:02;;;;;;;;;18.00;16.25;;;;;17.12;87.09;98950.34;5097633;27;45387;-60
2023/06/02 02:45:28;;;;;;;;;16.50;15.25;;;;;17.13;87.36;98957.38;5097485;27;46079;-59
2023/06/02 02:47:53;;;;;;;;;18.25;17.25;;;;;17.14;86.67;98953.75;5106426;27;45329;-60
2023/06/02 02:50:19;;;;;;;;;19.50;18.00;;;;;17.14;87.16;98955.56;5099362;27;45476;-60
2023/06/02 02:52:44;;;;;;;;;16.50;16.25;;;;;17.15;87.29;98963.47;5097356;27;45504;-59
2023/06/02 02:55:09;;;;;;;;;16.75;12.75;;;;;17.15;86.95;98959.94;5097057;27;45753;-60
2023/06/02 02:57:35;;;;;;;;;17.50;16.50;;;;;17.16;87.15;98956.31;5097460;27;45439;-60
2023/06/02 03:00:00;;;;;;;;;16.50;16.25;;;;;17.16;87.29;98959.00;5100851;27;46035;-59
2023/06/02 03:02:26;;;;;;;;;18.00;18.00;;;;;17.17;87.49;98955.38;5117177;27;45433;-59
2023/06/02 03:04:51;;;;;;;;;18.50;18.50;;;;;17.17;87.35;98952.72;5117416;27;46607;-59
2023/06/02 03:07:17;;;;;;;;;17.25;16.75;;;;;17.16;86.83;98956.31;5117925;27;45285;-59
2023/06/02 03:09:43;;;;;;;;;17.50;16.75;;;;;17.14;86.87;98951.09;5117342;27;45539;-59
2023/06/02 03:12:08;;;;;;;;;19.00;16.75;;;;;17.13;86.64;98957.38;5101156;27;45379;-59
2023/06/02 03:14:34;;;;;;;;;20.25;18.25;;;;;17.13;86.84;98961.88;5095384;27;46447;-60
2023/06/02 03:17:00;;;;;;;;;20.25;20.25;;;;;17.11;87.06;98964.63;5097004;27;45409;-59
2023/06/02 03:19:26;;;;;;;;;18.50;17.75;;;;;17.12;87.38;98961.00;5096772;27;45446;-59
2023/06/02 03:21:52;;;;;;;;;21.25;20.50;;;;;17.12;87.47;98957.50;5097268;27;45497;-59
2023/06/02 03:24:19;;;;;;;;;16.75;15.50;;;;;17.13;87.10;98962.72;5113316;27;45472;-59
2023/06/02 03:26:45;;;;;;;;;20.25;16.50;;;;;17.13;87.46;98960.06;5105770;27;45341;-59
2023/06/02 03:29:12;;;;;;;;;17.75;17.25;;;;;17.15;87.42;98959.94;5114714;27;45313;-59
2023/06/02 03:31:40;;;;;;;;;20.00;19.50;;;;;17.16;87.49;98959.00;5104500;27;45416;-59
2023/06/02 03:34:06;;;;;;;;;19.00;18.75;;;;;17.15;87.07;98960.81;5114445;27;45593;-59
2023/06/02 03:36:35;;;;;;;;;19.00;16.25;;;;;17.15;87.46;98966.13;5117350;27;45450;-59
2023/06/02 03:39:05;;;;;;;;;19.25;19.25;;;;;17.14;87.80;98959.09;5117325;27;45511;-59
2023/06/02 03:41:30;;;;;;;;;19.75;16.50;;;;;17.14;86.77;98956.44;5105962;27;45380;-59
2023/06/02 03:43:56;;;;;;;;;19.25;19.25;;;;;17.08;86.29;98960.41;5095704;27;45481;-59
2023/06/02 03:46:21;;;;;;;;;18.50;18.00;;;;;17.01;86.17;98963.56;5105941;27;45922;-59
2023/06/02 03:48:46;;;;;;;;;29.25;25.25;;;;;16.95;86.54;98966.66;5095542;27;45381;-59
2023/06/02 03:51:12;;;;;;;;;21.75;21.50;;;;;16.93;86.85;98971.22;5094712;27;45385;-59
2023/06/02 03:53:37;;;;;;;;;18.25;15.50;;;;;16.91;86.93;98971.34;5113857;27;45581;-59
2023/06/02 03:56:03;;;;;;;;;19.00;16.50;;;;;16.91;87.30;98973.16;5116978;27;45365;-60
2023/06/02 03:58:28;;;;;;;;;21.50;21.25;;;;;16.89;86.97;98969.75;5116574;27;45367;-60
2023/06/02 04:00:54;;;;;;;;;23.25;21.25;;;;;16.91;87.51;98973.16;5115637;27;45461;-60
2023/06/02 04:03:21;;;;;;;;;20.75;20.25;;;;;16.91;86.83;98975.81;5096500;27;45651;-60
2023/06/02 04:05:46;;;;;;;;;20.25;20.00;;;;;16.92;87.13;98977.53;5106706;27;45452;-59
2023/06/02 04:08:14;;;;;;;;;20.25;18.25;;;;;16.91;86.83;98970.50;5116358;27;45568;-60
2023/06/02 04:10:39;;;;;;;;;18.50;17.25;;;;;16.92;86.68;98978.38;5113149;27;45643;-59
2023/06/02 04:13:05;;;;;;;;;25.00;22.75;;;;;16.92;86.87;98974.88;5101285;27;47907;-59
2023/06/02 04:15:30;;;;;;;;;22.00;22.00;;;;;16.92;87.08;98977.53;5096048;27;45512;-59
2023/06/02 04:17:56;;;;;;;;;21.00;21.00;;;;;16.92;87.02;98985.53;5096038;27;45423;-59
2023/06/02 04:20:21;;;;;;;;;22.25;21.50;;;;;16.95;87.50;98986.13;5096190;27;45447;-59
2023/06/02 04:22:47;;;;;;;;;20.75;20.75;;;;;16.96;87.42;98979.84;5095859;27;45474;-59
2023/06/02 04:25:12;;;;;;;;;24.25;21.00;;;;;17.00;87.06;98985.84;5105335;27;45898;-59
2023/06/02 04:27:37;;;;;;;;;18.25;16.50;;;;;16.98;86.55;98991.25;5098409;27;45560;-59
2023/06/02 04:30:03;;;;;;;;;20.75;19.50;;;;;16.98;86.40;98999.25;5096026;27;45430;-59
2023/06/02 04:32:29;;;;;;;;;26.00;24.00;;;;;16.98;86.39;99001.91;5094875;27;45478;-59
2023/06/02 04:34:55;;;;;;;;;22.75;20.75;;;;;16.99;86.42;99002.78;5095473;27;45424;-59
2023/06/02 04:37:21;;;;;;;;;18.75;18.75;;;;;16.96;85.88;99000.31;5095748;27;45664;-59
2023/06/02 04:39:50;;;;;;;;;24.25;24.00;;;;;16.94;85.98;99000.41;5095627;27;45391;-59
2023/06/02 04:42:18;;;;;;;;;22.25;20.00;;;;;16.91;86.07;99003.31;5094940;27;45454;-59
2023/06/02 04:44:44;;;;;;;;;22.50;22.00;;;;;16.92;86.28;98998.84;5095167;27;45396;-59
2023/06/02 04:47:10;;;;;;;;;26.25;24.50;;;;;16.93;86.68;98998.69;5095499;27;45400;-59
2023/06/02 04:49:36;;;;;;;;;24.00;23.75;;;;;16.97;86.77;99007.34;5095753;27;45563;-59
2023/06/02 04:52:08;;;;;;;;;23.00;21.75;;;;;17.01;86.92;99000.84;5095204;27;46258;-59
2023/06/02 04:54:34;;;;;;;;;22.75;22.50;;;;;17.04;87.20;99006.84;5095158;27;45321;-59
2023/06/02 04:57:00;;;;;;;;;19.00;19.00;;;;;17.11;86.95;99012.56;5095299;27;45406;-59
2023/06/02 04:59:26;;;;;;;;;22.75;22.75;;;;;17.15;86.51;99006.09;5095338;27;45628;-59
2023/06/02 05:01:52;;;;;;;;;23.25;23.25;;;;;17.19;86.53;99004.06;5113262;27;46537;-60
2023/06/02 05:04:19;;;;;;;;;21.75;20.50;;;;;17.23;86.36;99001.09;5115458;27;45693;-59
2023/06/02 05:06:44;;;;;;;;;26.50;21.50;;;;;17.26;85.86;99006.19;5115498;27;45425;-59
2023/06/02 05:09:10;;;;;;;;;20.50;19.75;;;;;17.28;85.35;99003.44;5115745;27;45451;-59
2023/06/02 05:11:35;;;;;;;;;16.50;15.50;;;;;17.28;84.93;99004.28;5103457;27;46649;-59
2023/06/02 05:14:01;;;;;;;;;22.50;19.75;;;;;17.28;84.82;99014.94;5094104;27;45388;-59
2023/06/02 05:16:29;;;;;;;;;18.50;18.00;;;;;17.31;84.95;99012.06;5094471;27;45488;-59
2023/06/02 05:18:55;;;;;;;;;19.50;19.00;;;;;17.37;84.38;99011.66;5093832;27;45520;-60
2023/06/02 05:21:20;;;;;;;;;15.00;14.25;;;;;17.40;83.38;99002.59;5093985;27;45500;-60
2023/06/02 05:23:45;;;;;;;;;18.75;15.00;;;;;17.36;83.90;99001.09;5094221;27;45364;-59
2023/06/02 05:26:11;;;;;;;;;19.50;18.50;;;;;17.29;84.64;99010.47;5094688;27;45397;-52
2023/06/02 05:28:37;;;;;;;;;19.25;18.50;;;;;17.29;84.37;99019.31;5094184;27;45420;-52
2023/06/02 05:31:02;;;;;;;;;22.25;21.25;;;;;17.34;83.83;99013.66;5094519;27;46271;-51
2023/06/02 05:33:28;;;;;;;;;10.75;7.25;;;;;17.40;83.50;99008.78;5093876;27;45502;-51
2023/06/02 05:35:53;;;;;;;;;21.75;18.75;;;;;17.44;83.00;99010.25;5094533;27;45541;-54
2023/06/02 05:38:18;;;;;;;;;18.50;17.50;;;;;17.49;83.13;99012.59;5094566;27;45483;-49
2023/06/02 05:40:44;;;;;;;;;19.75;18.00;;;;;17.55;82.94;99012.19;5093744;27;46131;-48
2023/06/02 05:43:09;;;;;;;;;21.25;20.25;;;;;17.59;83.11;99011.00;5105265;27;45427;-54
2023/06/02 05:45:35;;;;;;;;;18.25;18.25;;;;;17.66;83.39;99009.63;5114563;27;45428;-53
2023/06/02 05:48:00;;;;;;;;;21.25;21.25;;;;;17.74;82.88;99003.75;5114104;27;45462;-50
2023/06/02 05:50:26;;;;;;;;;21.25;20.25;;;;;17.81;82.86;99009.50;5114076;27;45841;-51
2023/06/02 05:52:51;;;;;;;;;25.25;22.00;;;;;17.87;82.72;99007.25;5113028;27;45426;-51
2023/06/02 05:55:17;;;;;;;;;21.50;20.25;;;;;17.91;82.33;99002.56;5114459;27;45388;-50
2023/06/02 05:57:42;;;;;;;;;17.00;17.00;;;;;17.93;81.80;99009.47;5110237;27;45499;-49
2023/06/02 06:00:08;;;;;;;;;26.00;22.75;;;;;17.94;81.35;99008.50;5114331;27;45718;-53
2023/06/02 06:02:34;;;;;;;;;24.75;20.25;;;;;17.93;80.71;99003.31;5114169;27;45323;-50
2023/06/02 06:04:59;;;;;;;;;18.25;16.00;;;;;17.89;80.92;99008.00;5113633;27;45360;-51
2023/06/02 06:07:25;;;;;;;;;24.50;22.75;;;;;17.89;80.53;99007.16;5102508;27;45376;-51
2023/06/02 06:09:50;;;;;;;;;24.50;22.50;;;;;17.93;80.80;99009.47;5111008;27;45412;-52
2023/06/02 06:12:16;;;;;;;;;20.50;20.00;;;;;17.96;80.84;99000.38;5096808;27;45367;-52
2023/06/02 06:14:41;;;;;;;;;18.25;18.25;;;;;17.99;80.66;99001.03;5096301;27;45363;-51
2023/06/02 06:17:06;;;;;;;;;25.75;21.50;;;;;18.02;81.34;99003.47;5102740;27;45358;-59
2023/06/02 06:19:32;;;;;;;;;24.50;23.00;;;;;18.05;80.93;99000.59;5093569;27;45350;-52
2023/06/02 06:21:57;;;;;;;;;21.50;19.50;;;;;18.11;81.36;99001.94;5093430;27;45454;-52
2023/06/02 06:24:23;;;;;;;;;20.50;20.25;;;;;18.16;81.14;99007.81;5093117;27;45502;-52
2023/06/02 06:26:48;;;;;;;;;25.50;22.75;;;;;18.24;80.84;99002.78;5093284;27;45504;-60
2023/06/02 06:29:14;;;;;;;;;26.00;23.50;;;;;18.31;80.21;99005.84;5095893;27;45498;-59
2023/06/02 06:31:39;;;;;;;;;28.50;24.50;;;;;18.38;80.36;99002.63;5113462;27;45472;-65
2023/06/02 06:34:05;;;;;;;;;25.00;24.50;;;;;18.44;79.59;99002.13;5113079;27;45453;-56
2023/06/02 06:36:31;;;;;;;;;25.00;23.25;;;;;18.50;79.56;99006.19;5112677;27;45505;-53
2023/06/02 06:38:56;;;;;;;;;27.00;24.75;;;;;18.57;79.33;99011.94;5098028;27;46483;-57
2023/06/02 06:41:22;;;;;;;;;26.75;25.00;;;;;18.57;78.84;99004.78;5103016;27;45456;-54
2023/06/02 06:43:48;;;;;;;;;22.75;20.50;;;;;18.59;79.09;99005.53;5091781;27;45461;-54
2023/06/02 06:46:15;;;;;;;;;25.00;22.75;;;;;18.65;78.42;99005.06;5098939;27;45534;-55
2023/06/02 06:48:40;;;;;;;;;20.75;20.50;;;;;18.67;77.75;98997.78;5101357;27;47524;-55
2023/06/02 06:51:06;;;;;;;;;23.75;20.50;;;;;18.69;76.87;99003.88;5091092;27;45449;-53
2023/06/02 06:53:32;;;;;;;;;23.00;21.25;;;;;18.68;76.84;99001.31;5096556;27;45476;-57
2023/06/02 06:55:57;;;;;;;;;21.00;19.25;;;;;18.69;77.01;99005.69;5092180;27;45374;-56
2023/06/02 06:58:23;;;;;;;;;21.50;18.25;;;;;18.70;77.11;99005.59;5092272;27;45490;-56
2023/06/02 07:00:48;;;;;;;;;25.25;21.75;;;;;18.71;77.02;99011.78;5092739;27;45459;-53
2023/06/02 07:03:13;;;;;;;;;28.50;25.00;;;;;18.74;77.24;98995.53;5093340;27;45934;-55
2023/06/02 07:05:42;;;;;;;;;23.50;23.50;;;;;18.76;76.58;99001.59;5101653;27;45443;-56
2023/06/02 07:08:07;;;;;;;;;20.75;20.25;;;;;18.75;76.31;99007.91;5099720;27;45681;-54
2023/06/02 07:10:32;;;;;;;;;21.50;21.50;;;;;18.78;75.27;99003.16;5097441;27;45432;-55
2023/06/02 07:12:58;;;;;;;;;26.25;24.00;;;;;18.83;75.18;99001.00;5100718;27;45350;-56
2023/06/02 07:15:23;;;;;;;;;24.00;22.50;;;;;18.88;74.66;98991.81;5095503;27;45333;-64
2023/06/02 07:17:49;;;;;;;;;18.00;17.50;;;;;18.88;74.54;99000.66;5094750;27;46184;-64
2023/06/02 07:20:14;;;;;;;;;24.00;23.25;;;;;18.93;74.78;98997.66;5095210;27;45382;-64
2023/06/02 07:22:40;;;;;;;;;20.75;18.75;;;;;18.98;74.36;99003.47;5095541;27;45572;-64
2023/06/02 07:25:06;;;;;;;;;22.50;21.25;;;;;19.03;74.36;99006.66;5095826;27;45456;-65
2023/06/02 07:27:32;;;;;;;;;24.00;21.25;;;;;19.10;74.49;99000.72;5107283;27;48475;-64
2023/06/02 07:29:59;;;;;;;;;27.00;22.00;;;;;19.13;74.05;98992.47;5102878;27;45424;-64
2023/06/02 07:32:24;;;;;;;;;26.00;24.25;;;;;19.18;73.20;98992.97;5099228;27;45494;-64
2023/06/02 07:34:50;;;;;;;;;22.00;21.75;;;;;19.22;73.23;98998.09;5095676;27;45486;-64
2023/06/02 07:37:15;;;;;;;;;21.50;20.25;;;;;19.26;73.45;98996.88;5095558;27;46517;-64
2023/06/02 07:39:41;;;;;;;;;20.00;20.00;;;;;19.34;73.14;98987.28;5096006;27;45391;-64
2023/06/02 07:42:06;;;;;;;;;21.50;19.75;;;;;19.41;73.18;98990.34;5095913;27;45755;-64
2023/06/02 07:44:32;;;;;;;;;23.00;21.50;;;;;19.48;72.52;98981.69;5095857;27;45417;-64
2023/06/02 07:46:57;;;;;;;;;21.50;18.50;;;;;19.55;71.59;98990.13;5107192;27;47417;-64
2023/06/02 07:49:23;;;;;;;;;23.75;20.00;;;;;19.61;72.26;98978.94;5095677;27;45689;-64
2023/06/02 07:51:48;;;;;;;;;20.75;19.50;;;;;19.68;71.13;98985.50;5095351;27;45306;-64
2023/06/02 07:54:14;;;;;;;;;24.50;21.75;;;;;19.72;71.12;98975.41;5103266;27;45480;-64
2023/06/02 07:56:39;;;;;;;;;21.25;20.25;;;;;19.76;70.74;98977.75;5099693;27;45389;-64
2023/06/02 07:59:05;;;;;;;;;21.50;16.50;;;;;19.83;69.72;98976.25;5095279;27;45354;-64
2023/06/02 08:01:30;;;;;;;;;19.75;19.25;;;;;19.90;70.14;98978.44;5095415;27;45970;-64
2023/06/02 08:03:55;;;;;;;;;18.00;15.50;;;;;19.96;69.68;98973.44;5094795;27;45588;-64
2023/06/02 08:06:21;;;;;;;;;21.00;21.00;;;;;20.03;69.17;98965.78;5094782;27;46569;-63
2023/06/02 08:08:46;;;;;;;;;21.25;20.75;;;;;20.11;69.48;98958.81;5095253;27;45293;-64
2023/06/02 08:11:12;;;;;;;;;20.50;19.25;;;;;20.20;69.15;98959.88;5101587;27;45545;-63
2023/06/02 08:13:38;;;;;;;;;20.00;19.50;;;;;20.29;68.86;98960.94;5094719;27;45569;-64
2023/06/02 08:16:04;;;;;;;;;18.00;17.75;;;;;20.35;68.20;98955.94;5095293;27;46075;-64
2023/06/02 08:18:29;;;;;;;;;16.40;16.40;;;;;20.42;68.11;98943.78;5094764;27;45410;-64
2023/06/02 08:20:55;;;;;;;;;20.50;18.00;;;;;20.52;66.89;98954.56;5093642;27;45395;-63
2023/06/02 08:23:21;;;;;;;;;18.25;16.75;;;;;20.62;66.60;98949.28;5094942;27;45493;-64
2023/06/02 08:25:47;;;;;;;;;18.00;17.00;;;;;20.69;66.33;98950.47;5094553;27;45548;-64
2023/06/02 08:28:13;;;;;;;;;18.25;16.50;;;;;20.76;66.02;98944.50;5094772;27;45500;-64
2023/06/02 08:30:42;;;;;;;;;18.25;18.00;;;;;20.82;65.78;98937.75;5094411;27;45425;-64
2023/06/02 08:33:08;;;;;;;;;21.75;18.25;;;;;20.92;66.03;98937.81;5103384;27;45533;-64
2023/06/02 08:35:38;;;;;;;;;17.50;16.00;;;;;21.01;65.82;98934.34;5098663;27;46751;-64
2023/06/02 08:38:06;;;;;;;;;18.00;18.00;;;;;21.10;65.69;98936.25;5094248;27;45454;-64
2023/06/02 08:40:37;;;;;;;;;20.00;18.25;;;;;21.17;65.61;98930.22;5097421;27;45556;-64
2023/06/02 08:43:08;;;;;;;;;21.25;17.50;;;;;21.22;64.97;98921.81;5115006;27;45446;-63
2023/06/02 08:45:38;;;;;;;;;13.75;13.75;;;;;21.27;64.14;98921.41;5114466;27;46011;-61
2023/06/02 08:48:06;;;;;;;;;17.60;16.60;;;;;21.31;64.38;98925.50;5114848;27;45358;-64
2023/06/02 08:50:36;;;;;;;;;17.25;16.00;;;;;21.36;63.76;98923.28;5114810;27;45410;-64
2023/06/02 08:53:05;;;;;;;;;16.75;14.00;;;;;21.41;63.26;98926.41;5114813;27;45496;-63
2023/06/02 08:55:32;;;;;;;;;15.25;14.25;;;;;21.46;62.56;98918.78;5114224;27;45371;-63
2023/06/02 08:57:58;;;;;;;;;18.00;15.50;;;;;21.53;61.63;98920.81;5114988;27;45417;-64
2023/06/02 09:00:23;;;;;;;;;15.50;15.50;;;;;21.58;61.99;98915.06;5115497;27;45457;-62
2023/06/02 09:02:48;;;;;;;;;17.50;15.75;;;;;21.63;62.51;98918.16;5114112;27;45409;-62
2023/06/02 09:05:16;;;;;;;;;21.25;18.50;;;;;21.71;62.36;98917.50;5114328;27;46603;-62
2023/06/02 09:07:45;;;;;;;;;20.20;18.60;;;;;21.76;62.65;98913.41;5099305;27;45386;-62
2023/06/02 09:10:28;;;;;;;;;18.75;18.50;;;;;21.83;62.06;98913.69;5114427;27;45404;-62
2023/06/02 09:12:53;;;;;;;;;17.50;16.25;;;;;21.90;63.42;98921.06;5111039;27;45571;-62
2023/06/02 09:15:19;;;;;;;;;19.00;18.00;;;;;21.95;62.26;98918.81;5114063;27;45449;-62
2023/06/02 09:17:44;;;;;;;;;16.75;16.00;;;;;22.01;61.95;98913.91;5113403;27;45381;-62
2023/06/02 09:20:11;;;;;;;;;18.50;16.00;;;;;22.05;61.80;98913.50;5114444;27;45385;-62
2023/06/02 09:22:58;;;;;;;;;17.75;16.75;;;;;22.13;60.41;98907.41;5113656;27;45504;-62
2023/06/02 09:25:26;;;;;;;;;19.00;15.00;;;;;22.19;59.73;98906.88;5111373;27;47430;-62
2023/06/02 09:27:57;;;;;;;;;14.80;14.80;;;;;22.21;56.92;98897.69;5113884;27;45457;-61
2023/06/02 09:30:24;;;;;;;;;13.25;13.25;;;;;22.23;57.83;98898.41;5114315;27;45375;-62
2023/06/02 09:33:00;;;;;;;;;16.00;16.00;;;;;22.29;57.84;98899.66;5114168;27;45597;-63
2023/06/02 09:35:36;;;;;;;;;16.25;16.25;;;;;22.32;57.46;98893.16;5098821;27;47293;-63
2023/06/02 09:38:07;;;;;;;;;14.80;13.60;;;;;22.36;58.51;98892.75;5114359;27;45446;-62
2023/06/02 09:40:35;;;;;;;;;15.00;14.50;;;;;22.40;57.65;98885.25;5110914;27;45343;-62
2023/06/02 09:43:03;;;;;;;;;17.00;15.25;;;;;22.45;58.20;98888.38;5093400;27;45365;-62
2023/06/02 09:45:29;;;;;;;;;16.25;16.25;;;;;22.54;59.28;98885.66;5093180;27;46363;-63
2023/06/02 09:47:54;;;;;;;;;16.75;15.25;;;;;22.63;58.62;98883.94;5093114;27;45313;-62
2023/06/02 09:50:37;;;;;;;;;17.00;16.00;;;;;22.71;57.40;98884.09;5092862;27;45521;-62
2023/06/02 09:53:07;;;;;;;;;11.75;11.75;;;;;22.77;57.84;98869.28;5104622;27;45417;-62
2023/06/02 09:55:35;;;;;;;;;19.00;15.00;;;;;22.87;58.28;98870.94;5094249;27;45485;-62
2023/06/02 09:58:01;;;;;;;;;17.20;15.40;;;;;22.96;57.32;98869.19;5093053;27;45364;-62
2023/06/02 10:00:27;;;;;;;;;20.75;19.00;;;;;23.04;58.25;98855.03;5093377;27;45370;-62
2023/06/02 10:02:52;;;;;;;;;15.00;13.75;;;;;23.17;55.93;98869.00;5092898;27;45514;-62
2023/06/02 10:05:20;;;;;;;;;17.50;15.75;;;;;23.26;55.95;98862.75;5111738;27;47511;-62
2023/06/02 10:08:07;;;;;;;;;15.80;14.60;;;;;23.31;56.05;98865.81;5098561;27;45334;-62
2023/06/02 10:10:55;;;;;;;;;17.00;16.40;;;;;23.36;56.14;98876.16;5095813;27;45343;-62
2023/06/02 10:13:58;;;;;;;;;15.00;13.50;;;;;23.40;55.51;98864.09;5094370;27;45327;-62
2023/06/02 10:16:44;;;;;;;;;12.75;12.50;;;;;23.49;56.12;98865.88;5077747;27;45513;-63
2023/06/02 10:19:22;;;;;;;;;14.80;13.20;;;;;23.54;53.91;98869.03;5093521;27;45386;-62
2023/06/02 10:22:08;;;;;;;;;12.80;12.80;;;;;23.55;55.65;98855.41;5093611;27;45346;-62
2023/06/02 10:24:52;;;;;;;;;14.00;14.00;;;;;23.64;54.88;98849.13;5093549;27;45458;-62
2023/06/02 10:27:23;;;;;;;;;13.00;13.00;;;;;23.71;52.74;98853.91;5093158;27;45735;-62
2023/06/02 10:29:53;;;;;;;;;13.40;12.40;;;;;23.78;53.93;98853.19;5093940;27;45451;-63
2023/06/02 10:32:19;;;;;;;;;14.25;14.25;;;;;23.82;52.82;98849.16;5092766;27;45462;-62
2023/06/02 10:34:49;;;;;;;;;14.75;13.75;;;;;23.87;53.41;98846.84;5093282;27;45324;-62
2023/06/02 10:37:15;;;;;;;;;13.60;11.40;;;;;23.91;53.28;98837.50;5109039;27;46622;-62
2023/06/02 10:39:44;;;;;;;;;14.40;14.40;;;;;23.96;52.97;98835.16;5096989;27;45428;-62
2023/06/02 10:42:11;;;;;;;;;14.25;14.00;;;;;24.01;53.08;98835.56;5111667;27;45454;-63
2023/06/02 10:44:37;;;;;;;;;14.75;14.25;;;;;24.06;52.66;98839.66;5117179;27;45295;-62
2023/06/02 10:47:17;;;;;;;;;15.50;15.25;;;;;24.10;51.56;98833.81;5117119;27;45458;-62
2023/06/02 10:50:00;;;;;;;;;11.80;11.20;;;;;24.16;52.25;98829.63;5104648;27;45538;-62
2023/06/02 10:52:27;;;;;;;;;14.20;13.80;;;;;24.22;52.72;98829.03;5104872;27;45425;-62
2023/06/02 10:55:07;;;;;;;;;14.75;14.75;;;;;24.30;51.78;98829.09;5117471;27;45611;-62
2023/06/02 10:57:58;;;;;;;;;12.00;11.50;;;;;24.38;52.03;98821.09;5117563;27;45512;-62
2023/06/02 11:00:30;;;;;;;;;16.40;14.80;;;;;24.47;52.61;98811.22;5116976;27;45513;-62
2023/06/02 11:02:56;;;;;;;;;11.75;11.00;;;;;24.54;52.45;98805.06;5116838;27;45484;-62
2023/06/02 11:05:26;;;;;;;;;16.00;16.00;;;;;24.63;51.27;98805.97;5117370;27;45436;-62
2023/06/02 11:08:17;;;;;;;;;16.75;14.00;;;;;24.70;51.74;98802.47;5117003;27;45472;-63
2023/06/02 11:10:48;;;;;;;;;14.20;13.40;;;;;24.75;50.82;98806.56;5113169;27;45393;-62
2023/06/02 11:13:18;;;;;;;;;15.20;15.20;;;;;24.79;50.81;98805.25;5096792;27;45467;-62
2023/06/02 11:15:56;;;;;;;;;16.50;16.00;;;;;24.83;50.73;98804.75;5096641;27;45541;-62
2023/06/02 11:18:22;;;;;;;;;15.00;14.00;;;;;24.87;49.95;98807.97;5101682;27;47234;-63